Terminal Aerodrome Forecast
Issued by NWS

Home | Current Version | Previous Version | Text Only | Print | Product List | Glossary On
Versions: 1 2 3 4 5 6 7 8 9 10 11 12 13 14 15 16 17 18 19 20 21 22 23 24 25 26 27
000
FTUS42 KMFL 071430 AAA
TAFMIA
TAF AMD
KMIA 071430Z 0714/0812 32003KT P6SM SCT012 SCT070
     FM071500 VRB03KT 6SM BR BKN009 BKN040
     FM071600 VRB03KT P6SM FEW015 BKN040
     FM072100 14006KT P6SM VCSH BKN030
     FM080000 VRB03KT P6SM SCT030 OVC060
     FM080900 00000KT 6SM BR SCT015 BKN035=

USA.gov is the U.S. government's official web portal to all federal, state and local government web resources and services.